sensor_id;sensor_type;location;lat;lon;timestamp;P1;durP1;ratioP1;P2;durP2;ratioP2
4696;SDS011;2362;50.780;0.292;2023-09-12T00:00:55;16.02;;;6.35;;
4696;SDS011;2362;50.780;0.292;2023-09-12T00:03:22;17.08;;;6.22;;
4696;SDS011;2362;50.780;0.292;2023-09-12T00:05:55;14.25;;;6.00;;
4696;SDS011;2362;50.780;0.292;2023-09-12T00:08:22;15.70;;;6.10;;
4696;SDS011;2362;50.780;0.292;2023-09-12T00:11:01;15.60;;;6.28;;
4696;SDS011;2362;50.780;0.292;2023-09-12T00:13:37;11.82;;;5.85;;
4696;SDS011;2362;50.780;0.292;2023-09-12T00:16:04;13.02;;;6.70;;
4696;SDS011;2362;50.780;0.292;2023-09-12T00:18:36;15.10;;;6.93;;
4696;SDS011;2362;50.780;0.292;2023-09-12T00:21:02;15.18;;;7.25;;
4696;SDS011;2362;50.780;0.292;2023-09-12T00:23:28;17.40;;;8.07;;
4696;SDS011;2362;50.780;0.292;2023-09-12T00:25:54;11.85;;;7.40;;
4696;SDS011;2362;50.780;0.292;2023-09-12T00:28:21;18.25;;;7.97;;
4696;SDS011;2362;50.780;0.292;2023-09-12T00:30:47;20.48;;;7.97;;
4696;SDS011;2362;50.780;0.292;2023-09-12T00:33:13;16.83;;;9.07;;
4696;SDS011;2362;50.780;0.292;2023-09-12T00:35:38;14.07;;;8.38;;
4696;SDS011;2362;50.780;0.292;2023-09-12T00:38:04;20.80;;;9.90;;
4696;SDS011;2362;50.780;0.292;2023-09-12T00:40:31;20.60;;;9.15;;
4696;SDS011;2362;50.780;0.292;2023-09-12T00:42:58;16.67;;;8.75;;
4696;SDS011;2362;50.780;0.292;2023-09-12T00:45:24;20.48;;;9.80;;
4696;SDS011;2362;50.780;0.292;2023-09-12T00:47:49;16.63;;;10.10;;
4696;SDS011;2362;50.780;0.292;2023-09-12T00:50:17;16.73;;;9.98;;
4696;SDS011;2362;50.780;0.292;2023-09-12T00:52:45;19.92;;;11.57;;
4696;SDS011;2362;50.780;0.292;2023-09-12T00:55:12;24.00;;;11.60;;
4696;SDS011;2362;50.780;0.292;2023-09-12T00:57:38;28.40;;;11.85;;
4696;SDS011;2362;50.780;0.292;2023-09-12T01:00:04;23.33;;;11.27;;
4696;SDS011;2362;50.780;0.292;2023-09-12T01:02:37;27.08;;;13.60;;
4696;SDS011;2362;50.780;0.292;2023-09-12T01:05:12;19.45;;;11.38;;
4696;SDS011;2362;50.780;0.292;2023-09-12T01:07:39;23.40;;;14.00;;
4696;SDS011;2362;50.780;0.292;2023-09-12T01:10:07;21.83;;;13.60;;
4696;SDS011;2362;50.780;0.292;2023-09-12T01:12:34;23.73;;;15.18;;
4696;SDS011;2362;50.780;0.292;2023-09-12T01:14:59;25.27;;;16.25;;
4696;SDS011;2362;50.780;0.292;2023-09-12T01:17:25;26.65;;;16.85;;
4696;SDS011;2362;50.780;0.292;2023-09-12T01:19:51;30.65;;;17.35;;
4696;SDS011;2362;50.780;0.292;2023-09-12T01:27:39;29.85;;;19.48;;
4696;SDS011;2362;50.780;0.292;2023-09-12T01:30:09;30.90;;;19.35;;
4696;SDS011;2362;50.780;0.292;2023-09-12T01:32:36;33.92;;;20.70;;
4696;SDS011;2362;50.780;0.292;2023-09-12T01:35:04;31.13;;;20.63;;
4696;SDS011;2362;50.780;0.292;2023-09-12T01:37:33;31.60;;;20.25;;
4696;SDS011;2362;50.780;0.292;2023-09-12T01:39:59;29.25;;;19.75;;
4696;SDS011;2362;50.780;0.292;2023-09-12T01:42:27;29.58;;;20.15;;
4696;SDS011;2362;50.780;0.292;2023-09-12T01:44:59;34.85;;;20.70;;
4696;SDS011;2362;50.780;0.292;2023-09-12T01:47:26;29.05;;;20.92;;
4696;SDS011;2362;50.780;0.292;2023-09-12T01:49:54;32.97;;;22.30;;
4696;SDS011;2362;50.780;0.292;2023-09-12T01:52:22;33.15;;;21.48;;
4696;SDS011;2362;50.780;0.292;2023-09-12T01:54:50;34.47;;;22.48;;
4696;SDS011;2362;50.780;0.292;2023-09-12T01:57:18;38.53;;;23.45;;
4696;SDS011;2362;50.780;0.292;2023-09-12T01:59:46;41.97;;;23.40;;
4696;SDS011;2362;50.780;0.292;2023-09-12T02:02:13;45.85;;;23.83;;
4696;SDS011;2362;50.780;0.292;2023-09-12T02:04:39;37.20;;;23.95;;
4696;SDS011;2362;50.780;0.292;2023-09-12T02:07:05;38.17;;;22.17;;
4696;SDS011;2362;50.780;0.292;2023-09-12T02:09:30;33.92;;;21.58;;
4696;SDS011;2362;50.780;0.292;2023-09-12T02:11:56;38.60;;;21.20;;
4696;SDS011;2362;50.780;0.292;2023-09-12T02:14:21;37.00;;;21.98;;
4696;SDS011;2362;50.780;0.292;2023-09-12T02:16:47;35.83;;;21.58;;
4696;SDS011;2362;50.780;0.292;2023-09-12T02:19:13;38.38;;;23.63;;
4696;SDS011;2362;50.780;0.292;2023-09-12T02:21:38;36.60;;;22.48;;
4696;SDS011;2362;50.780;0.292;2023-09-12T02:24:04;35.95;;;22.08;;
4696;SDS011;2362;50.780;0.292;2023-09-12T02:26:30;38.00;;;22.65;;
4696;SDS011;2362;50.780;0.292;2023-09-12T02:29:01;44.65;;;24.30;;
4696;SDS011;2362;50.780;0.292;2023-09-12T02:31:27;40.58;;;22.83;;
4696;SDS011;2362;50.780;0.292;2023-09-12T02:33:53;38.40;;;23.67;;
4696;SDS011;2362;50.780;0.292;2023-09-12T02:36:19;48.33;;;25.00;;
4696;SDS011;2362;50.780;0.292;2023-09-12T02:38:45;50.17;;;24.60;;
4696;SDS011;2362;50.780;0.292;2023-09-12T02:41:11;43.80;;;24.77;;
4696;SDS011;2362;50.780;0.292;2023-09-12T02:43:36;44.28;;;25.98;;
4696;SDS011;2362;50.780;0.292;2023-09-12T02:46:02;50.58;;;25.58;;
4696;SDS011;2362;50.780;0.292;2023-09-12T02:48:28;51.83;;;26.20;;
4696;SDS011;2362;50.780;0.292;2023-09-12T02:50:54;42.20;;;26.02;;
4696;SDS011;2362;50.780;0.292;2023-09-12T02:53:20;47.70;;;27.40;;
4696;SDS011;2362;50.780;0.292;2023-09-12T02:55:46;45.25;;;26.33;;
4696;SDS011;2362;50.780;0.292;2023-09-12T02:58:12;56.15;;;28.38;;
4696;SDS011;2362;50.780;0.292;2023-09-12T03:00:38;49.80;;;26.15;;
4696;SDS011;2362;50.780;0.292;2023-09-12T03:03:06;49.63;;;26.95;;
4696;SDS011;2362;50.780;0.292;2023-09-12T03:05:31;53.67;;;27.85;;
4696;SDS011;2362;50.780;0.292;2023-09-12T03:07:57;50.65;;;28.63;;
4696;SDS011;2362;50.780;0.292;2023-09-12T03:10:23;47.85;;;26.63;;
4696;SDS011;2362;50.780;0.292;2023-09-12T03:12:48;55.40;;;27.73;;
4696;SDS011;2362;50.780;0.292;2023-09-12T03:15:14;53.97;;;29.83;;
4696;SDS011;2362;50.780;0.292;2023-09-12T03:17:40;52.13;;;28.73;;
4696;SDS011;2362;50.780;0.292;2023-09-12T03:20:06;45.58;;;26.90;;
4696;SDS011;2362;50.780;0.292;2023-09-12T03:22:34;49.45;;;26.13;;
4696;SDS011;2362;50.780;0.292;2023-09-12T03:25:05;54.88;;;26.98;;
4696;SDS011;2362;50.780;0.292;2023-09-12T03:27:31;44.90;;;25.48;;
4696;SDS011;2362;50.780;0.292;2023-09-12T03:29:58;44.63;;;25.60;;
4696;SDS011;2362;50.780;0.292;2023-09-12T03:32:23;47.42;;;25.85;;
4696;SDS011;2362;50.780;0.292;2023-09-12T03:34:49;48.05;;;26.70;;
4696;SDS011;2362;50.780;0.292;2023-09-12T03:37:15;49.15;;;27.17;;
4696;SDS011;2362;50.780;0.292;2023-09-12T03:39:40;45.22;;;26.95;;
4696;SDS011;2362;50.780;0.292;2023-09-12T03:42:06;46.45;;;27.90;;
4696;SDS011;2362;50.780;0.292;2023-09-12T03:44:31;45.65;;;28.05;;
4696;SDS011;2362;50.780;0.292;2023-09-12T03:46:57;50.28;;;26.85;;
4696;SDS011;2362;50.780;0.292;2023-09-12T03:49:23;43.97;;;29.00;;
4696;SDS011;2362;50.780;0.292;2023-09-12T03:51:49;43.15;;;27.65;;
4696;SDS011;2362;50.780;0.292;2023-09-12T03:54:14;46.17;;;26.10;;
4696;SDS011;2362;50.780;0.292;2023-09-12T03:56:40;55.97;;;26.40;;
4696;SDS011;2362;50.780;0.292;2023-09-12T03:59:06;45.38;;;25.63;;
4696;SDS011;2362;50.780;0.292;2023-09-12T04:01:32;50.00;;;27.30;;
4696;SDS011;2362;50.780;0.292;2023-09-12T04:03:57;41.13;;;24.55;;
4696;SDS011;2362;50.780;0.292;2023-09-12T04:06:23;39.92;;;25.10;;
4696;SDS011;2362;50.780;0.292;2023-09-12T04:08:49;49.45;;;25.83;;
4696;SDS011;2362;50.780;0.292;2023-09-12T04:11:14;43.13;;;24.73;;
4696;SDS011;2362;50.780;0.292;2023-09-12T04:13:40;43.65;;;26.80;;
4696;SDS011;2362;50.780;0.292;2023-09-12T04:16:06;39.03;;;24.38;;
4696;SDS011;2362;50.780;0.292;2023-09-12T04:18:31;40.20;;;24.80;;
4696;SDS011;2362;50.780;0.292;2023-09-12T04:20:57;48.95;;;27.67;;
4696;SDS011;2362;50.780;0.292;2023-09-12T04:23:25;47.17;;;25.90;;
4696;SDS011;2362;50.780;0.292;2023-09-12T04:25:50;51.08;;;26.52;;
4696;SDS011;2362;50.780;0.292;2023-09-12T04:28:16;39.08;;;23.70;;
4696;SDS011;2362;50.780;0.292;2023-09-12T04:30:42;47.78;;;26.42;;
4696;SDS011;2362;50.780;0.292;2023-09-12T04:33:07;48.45;;;27.08;;
4696;SDS011;2362;50.780;0.292;2023-09-12T04:35:34;50.05;;;25.65;;
4696;SDS011;2362;50.780;0.292;2023-09-12T04:38:00;39.78;;;23.92;;
4696;SDS011;2362;50.780;0.292;2023-09-12T04:40:25;41.30;;;24.65;;
4696;SDS011;2362;50.780;0.292;2023-09-12T04:42:51;46.42;;;26.58;;
4696;SDS011;2362;50.780;0.292;2023-09-12T04:45:17;41.95;;;24.83;;
4696;SDS011;2362;50.780;0.292;2023-09-12T04:47:42;39.78;;;25.13;;
4696;SDS011;2362;50.780;0.292;2023-09-12T04:50:08;42.30;;;24.83;;
4696;SDS011;2362;50.780;0.292;2023-09-12T04:52:34;41.08;;;25.25;;
4696;SDS011;2362;50.780;0.292;2023-09-12T04:55:00;47.13;;;27.63;;
4696;SDS011;2362;50.780;0.292;2023-09-12T04:57:26;44.70;;;24.85;;
4696;SDS011;2362;50.780;0.292;2023-09-12T04:59:55;47.90;;;25.98;;
4696;SDS011;2362;50.780;0.292;2023-09-12T05:02:21;46.65;;;25.58;;
4696;SDS011;2362;50.780;0.292;2023-09-12T05:04:47;41.97;;;25.77;;
4696;SDS011;2362;50.780;0.292;2023-09-12T05:07:13;39.97;;;25.58;;
4696;SDS011;2362;50.780;0.292;2023-09-12T05:09:38;44.45;;;25.52;;
4696;SDS011;2362;50.780;0.292;2023-09-12T05:12:04;43.25;;;26.50;;
4696;SDS011;2362;50.780;0.292;2023-09-12T05:14:30;43.97;;;25.58;;
4696;SDS011;2362;50.780;0.292;2023-09-12T05:16:55;37.45;;;25.13;;
4696;SDS011;2362;50.780;0.292;2023-09-12T05:19:21;43.58;;;26.02;;
4696;SDS011;2362;50.780;0.292;2023-09-12T05:21:48;46.80;;;25.95;;
4696;SDS011;2362;50.780;0.292;2023-09-12T05:24:13;49.55;;;26.05;;
4696;SDS011;2362;50.780;0.292;2023-09-12T05:26:39;46.38;;;26.73;;
4696;SDS011;2362;50.780;0.292;2023-09-12T05:29:05;51.72;;;25.23;;
4696;SDS011;2362;50.780;0.292;2023-09-12T05:31:30;43.65;;;25.13;;
4696;SDS011;2362;50.780;0.292;2023-09-12T05:33:57;54.20;;;26.85;;
4696;SDS011;2362;50.780;0.292;2023-09-12T05:36:22;44.55;;;25.20;;
4696;SDS011;2362;50.780;0.292;2023-09-12T05:38:48;46.58;;;24.58;;
4696;SDS011;2362;50.780;0.292;2023-09-12T05:41:14;48.47;;;25.60;;
4696;SDS011;2362;50.780;0.292;2023-09-12T05:43:39;56.15;;;28.98;;
4696;SDS011;2362;50.780;0.292;2023-09-12T05:46:05;51.13;;;26.83;;
4696;SDS011;2362;50.780;0.292;2023-09-12T05:48:31;55.60;;;28.10;;
4696;SDS011;2362;50.780;0.292;2023-09-12T05:50:56;54.00;;;28.52;;
4696;SDS011;2362;50.780;0.292;2023-09-12T05:53:22;63.58;;;27.63;;
4696;SDS011;2362;50.780;0.292;2023-09-12T05:55:48;53.03;;;27.15;;
4696;SDS011;2362;50.780;0.292;2023-09-12T05:58:14;62.20;;;29.13;;
4696;SDS011;2362;50.780;0.292;2023-09-12T06:00:39;48.22;;;26.55;;
4696;SDS011;2362;50.780;0.292;2023-09-12T06:03:05;52.97;;;25.73;;
4696;SDS011;2362;50.780;0.292;2023-09-12T06:05:31;40.55;;;25.48;;
4696;SDS011;2362;50.780;0.292;2023-09-12T06:07:57;46.28;;;26.67;;
4696;SDS011;2362;50.780;0.292;2023-09-12T06:10:22;48.65;;;25.40;;
4696;SDS011;2362;50.780;0.292;2023-09-12T06:12:48;45.40;;;25.88;;
4696;SDS011;2362;50.780;0.292;2023-09-12T06:15:14;48.90;;;24.63;;
4696;SDS011;2362;50.780;0.292;2023-09-12T06:17:40;45.85;;;25.88;;
4696;SDS011;2362;50.780;0.292;2023-09-12T06:20:06;50.95;;;26.52;;
4696;SDS011;2362;50.780;0.292;2023-09-12T06:22:32;47.63;;;25.10;;
4696;SDS011;2362;50.780;0.292;2023-09-12T06:24:59;56.22;;;27.55;;
4696;SDS011;2362;50.780;0.292;2023-09-12T06:27:24;56.38;;;27.23;;
4696;SDS011;2362;50.780;0.292;2023-09-12T06:29:50;47.92;;;26.05;;
4696;SDS011;2362;50.780;0.292;2023-09-12T06:32:17;44.80;;;25.40;;
4696;SDS011;2362;50.780;0.292;2023-09-12T06:34:43;52.67;;;28.15;;
4696;SDS011;2362;50.780;0.292;2023-09-12T06:37:10;47.05;;;26.67;;
4696;SDS011;2362;50.780;0.292;2023-09-12T06:39:36;46.42;;;25.00;;
4696;SDS011;2362;50.780;0.292;2023-09-12T06:42:02;43.33;;;25.25;;
4696;SDS011;2362;50.780;0.292;2023-09-12T06:44:28;49.78;;;25.75;;
4696;SDS011;2362;50.780;0.292;2023-09-12T06:46:54;49.83;;;25.33;;
4696;SDS011;2362;50.780;0.292;2023-09-12T06:49:19;44.00;;;23.30;;
4696;SDS011;2362;50.780;0.292;2023-09-12T06:51:45;45.75;;;24.55;;
4696;SDS011;2362;50.780;0.292;2023-09-12T06:54:11;45.60;;;25.27;;
4696;SDS011;2362;50.780;0.292;2023-09-12T06:56:37;43.88;;;24.52;;
4696;SDS011;2362;50.780;0.292;2023-09-12T06:59:03;47.80;;;24.48;;
4696;SDS011;2362;50.780;0.292;2023-09-12T07:01:30;39.63;;;23.35;;
4696;SDS011;2362;50.780;0.292;2023-09-12T07:03:56;35.65;;;22.25;;
4696;SDS011;2362;50.780;0.292;2023-09-12T07:06:22;45.45;;;24.70;;
4696;SDS011;2362;50.780;0.292;2023-09-12T07:08:48;43.65;;;23.15;;
4696;SDS011;2362;50.780;0.292;2023-09-12T07:11:14;40.78;;;23.20;;
4696;SDS011;2362;50.780;0.292;2023-09-12T07:13:39;35.67;;;22.17;;
4696;SDS011;2362;50.780;0.292;2023-09-12T07:16:05;33.47;;;20.95;;
4696;SDS011;2362;50.780;0.292;2023-09-12T07:18:31;36.97;;;21.60;;
4696;SDS011;2362;50.780;0.292;2023-09-12T07:21:00;33.83;;;21.08;;
4696;SDS011;2362;50.780;0.292;2023-09-12T07:23:27;39.00;;;22.38;;
4696;SDS011;2362;50.780;0.292;2023-09-12T07:25:54;34.75;;;18.92;;
4696;SDS011;2362;50.780;0.292;2023-09-12T07:28:22;34.53;;;18.55;;
4696;SDS011;2362;50.780;0.292;2023-09-12T07:30:49;38.95;;;18.67;;
4696;SDS011;2362;50.780;0.292;2023-09-12T07:33:14;35.47;;;20.80;;
4696;SDS011;2362;50.780;0.292;2023-09-12T07:35:40;36.03;;;20.50;;
4696;SDS011;2362;50.780;0.292;2023-09-12T07:38:06;35.53;;;18.70;;
4696;SDS011;2362;50.780;0.292;2023-09-12T07:40:31;33.55;;;17.98;;
4696;SDS011;2362;50.780;0.292;2023-09-12T07:42:57;35.72;;;19.20;;
4696;SDS011;2362;50.780;0.292;2023-09-12T07:45:22;35.97;;;18.70;;
4696;SDS011;2362;50.780;0.292;2023-09-12T07:47:48;27.27;;;18.70;;
4696;SDS011;2362;50.780;0.292;2023-09-12T07:50:14;32.97;;;18.13;;
4696;SDS011;2362;50.780;0.292;2023-09-12T07:52:40;27.17;;;16.02;;
4696;SDS011;2362;50.780;0.292;2023-09-12T07:55:06;26.92;;;17.17;;
4696;SDS011;2362;50.780;0.292;2023-09-12T07:57:32;29.55;;;15.98;;
4696;SDS011;2362;50.780;0.292;2023-09-12T07:59:59;27.13;;;14.85;;
4696;SDS011;2362;50.780;0.292;2023-09-12T08:02:25;22.02;;;12.23;;
4696;SDS011;2362;50.780;0.292;2023-09-12T08:04:51;19.50;;;10.95;;
4696;SDS011;2362;50.780;0.292;2023-09-12T08:07:17;17.15;;;9.68;;
4696;SDS011;2362;50.780;0.292;2023-09-12T08:09:56;12.45;;;7.55;;
4696;SDS011;2362;50.780;0.292;2023-09-12T08:12:24;16.30;;;9.73;;
4696;SDS011;2362;50.780;0.292;2023-09-12T08:14:51;19.65;;;10.80;;
4696;SDS011;2362;50.780;0.292;2023-09-12T08:17:17;16.23;;;11.65;;
4696;SDS011;2362;50.780;0.292;2023-09-12T08:19:44;29.88;;;11.00;;
4696;SDS011;2362;50.780;0.292;2023-09-12T08:22:10;14.35;;;8.57;;
4696;SDS011;2362;50.780;0.292;2023-09-12T08:24:37;11.88;;;7.05;;
4696;SDS011;2362;50.780;0.292;2023-09-12T08:27:04;11.07;;;7.97;;
4696;SDS011;2362;50.780;0.292;2023-09-12T08:29:31;11.63;;;7.32;;
4696;SDS011;2362;50.780;0.292;2023-09-12T08:31:57;20.42;;;7.68;;
4696;SDS011;2362;50.780;0.292;2023-09-12T08:34:23;14.88;;;8.20;;
4696;SDS011;2362;50.780;0.292;2023-09-12T08:36:49;13.63;;;7.43;;
4696;SDS011;2362;50.780;0.292;2023-09-12T08:39:17;11.48;;;5.88;;
4696;SDS011;2362;50.780;0.292;2023-09-12T08:41:48;15.18;;;6.05;;
4696;SDS011;2362;50.780;0.292;2023-09-12T08:44:14;9.15;;;5.45;;
4696;SDS011;2362;50.780;0.292;2023-09-12T08:46:44;13.73;;;6.32;;
4696;SDS011;2362;50.780;0.292;2023-09-12T08:49:10;9.38;;;6.15;;
4696;SDS011;2362;50.780;0.292;2023-09-12T08:51:39;9.80;;;5.97;;
4696;SDS011;2362;50.780;0.292;2023-09-12T08:54:05;18.25;;;6.13;;
4696;SDS011;2362;50.780;0.292;2023-09-12T08:56:32;12.30;;;6.35;;
4696;SDS011;2362;50.780;0.292;2023-09-12T08:59:01;13.55;;;6.05;;
4696;SDS011;2362;50.780;0.292;2023-09-12T09:01:30;14.88;;;6.05;;
4696;SDS011;2362;50.780;0.292;2023-09-12T09:03:56;13.77;;;7.10;;
4696;SDS011;2362;50.780;0.292;2023-09-12T09:06:22;14.90;;;6.40;;
4696;SDS011;2362;50.780;0.292;2023-09-12T09:08:49;10.38;;;6.45;;
4696;SDS011;2362;50.780;0.292;2023-09-12T09:11:15;15.52;;;7.50;;
4696;SDS011;2362;50.780;0.292;2023-09-12T09:13:41;9.25;;;6.03;;
4696;SDS011;2362;50.780;0.292;2023-09-12T09:16:14;11.75;;;6.00;;
4696;SDS011;2362;50.780;0.292;2023-09-12T09:18:51;12.80;;;7.57;;
4696;SDS011;2362;50.780;0.292;2023-09-12T09:21:20;9.55;;;6.65;;
4696;SDS011;2362;50.780;0.292;2023-09-12T09:23:51;13.15;;;6.22;;
4696;SDS011;2362;50.780;0.292;2023-09-12T09:26:18;8.75;;;5.22;;
4696;SDS011;2362;50.780;0.292;2023-09-12T09:28:44;8.13;;;5.28;;
4696;SDS011;2362;50.780;0.292;2023-09-12T09:31:11;11.95;;;7.28;;
4696;SDS011;2362;50.780;0.292;2023-09-12T09:33:39;12.52;;;6.40;;
4696;SDS011;2362;50.780;0.292;2023-09-12T09:36:06;18.02;;;6.40;;
4696;SDS011;2362;50.780;0.292;2023-09-12T09:38:35;10.40;;;6.28;;
4696;SDS011;2362;50.780;0.292;2023-09-12T09:41:05;11.05;;;6.55;;
4696;SDS011;2362;50.780;0.292;2023-09-12T09:43:32;8.18;;;6.07;;
4696;SDS011;2362;50.780;0.292;2023-09-12T09:45:58;9.07;;;5.63;;
4696;SDS011;2362;50.780;0.292;2023-09-12T09:48:24;14.63;;;6.15;;
4696;SDS011;2362;50.780;0.292;2023-09-12T09:51:02;8.82;;;5.25;;
4696;SDS011;2362;50.780;0.292;2023-09-12T09:53:28;13.70;;;5.07;;
4696;SDS011;2362;50.780;0.292;2023-09-12T09:58:54;10.20;;;4.97;;
4696;SDS011;2362;50.780;0.292;2023-09-12T10:01:26;11.05;;;5.07;;
4696;SDS011;2362;50.780;0.292;2023-09-12T10:03:55;9.93;;;4.93;;
4696;SDS011;2362;50.780;0.292;2023-09-12T10:06:23;9.85;;;4.35;;
4696;SDS011;2362;50.780;0.292;2023-09-12T10:08:51;8.70;;;4.07;;
4696;SDS011;2362;50.780;0.292;2023-09-12T10:11:17;21.48;;;4.45;;
4696;SDS011;2362;50.780;0.292;2023-09-12T10:13:55;11.05;;;5.65;;
4696;SDS011;2362;50.780;0.292;2023-09-12T10:16:29;11.63;;;4.75;;
4696;SDS011;2362;50.780;0.292;2023-09-12T10:24:32;8.98;;;3.95;;
4696;SDS011;2362;50.780;0.292;2023-09-12T10:27:00;9.05;;;4.00;;
4696;SDS011;2362;50.780;0.292;2023-09-12T10:29:27;5.68;;;3.10;;
4696;SDS011;2362;50.780;0.292;2023-09-12T10:31:53;12.52;;;3.60;;
4696;SDS011;2362;50.780;0.292;2023-09-12T10:34:20;7.15;;;3.20;;
4696;SDS011;2362;50.780;0.292;2023-09-12T10:36:47;9.70;;;3.33;;
4696;SDS011;2362;50.780;0.292;2023-09-12T10:39:14;10.60;;;3.22;;
4696;SDS011;2362;50.780;0.292;2023-09-12T10:41:40;7.03;;;2.75;;
4696;SDS011;2362;50.780;0.292;2023-09-12T10:44:10;7.07;;;2.92;;
4696;SDS011;2362;50.780;0.292;2023-09-12T10:46:39;8.00;;;3.00;;
4696;SDS011;2362;50.780;0.292;2023-09-12T10:49:09;11.55;;;2.95;;
4696;SDS011;2362;50.780;0.292;2023-09-12T10:51:40;13.68;;;3.33;;
4696;SDS011;2362;50.780;0.292;2023-09-12T10:54:07;6.70;;;2.60;;
4696;SDS011;2362;50.780;0.292;2023-09-12T10:56:37;5.82;;;3.10;;
4696;SDS011;2362;50.780;0.292;2023-09-12T11:01:41;6.25;;;3.05;;
4696;SDS011;2362;50.780;0.292;2023-09-12T11:06:52;12.93;;;2.95;;
4696;SDS011;2362;50.780;0.292;2023-09-12T11:09:18;3.33;;;2.50;;
4696;SDS011;2362;50.780;0.292;2023-09-12T11:14:20;7.97;;;2.75;;
4696;SDS011;2362;50.780;0.292;2023-09-12T11:19:31;9.00;;;3.25;;
4696;SDS011;2362;50.780;0.292;2023-09-12T11:22:24;5.25;;;3.33;;
4696;SDS011;2362;50.780;0.292;2023-09-12T11:24:52;8.80;;;3.92;;
4696;SDS011;2362;50.780;0.292;2023-09-12T11:27:18;11.77;;;4.45;;
4696;SDS011;2362;50.780;0.292;2023-09-12T11:29:44;8.98;;;2.90;;
4696;SDS011;2362;50.780;0.292;2023-09-12T11:32:11;5.25;;;2.88;;
4696;SDS011;2362;50.780;0.292;2023-09-12T11:34:55;6.38;;;2.45;;
4696;SDS011;2362;50.780;0.292;2023-09-12T11:37:27;9.25;;;3.15;;
4696;SDS011;2362;50.780;0.292;2023-09-12T11:39:54;8.57;;;2.67;;
4696;SDS011;2362;50.780;0.292;2023-09-12T11:42:22;5.60;;;2.72;;
4696;SDS011;2362;50.780;0.292;2023-09-12T11:44:50;12.60;;;4.22;;
4696;SDS011;2362;50.780;0.292;2023-09-12T11:47:17;11.77;;;3.35;;
4696;SDS011;2362;50.780;0.292;2023-09-12T11:49:42;12.40;;;3.33;;
4696;SDS011;2362;50.780;0.292;2023-09-12T11:52:12;6.65;;;2.92;;
4696;SDS011;2362;50.780;0.292;2023-09-12T11:54:43;13.35;;;3.30;;
4696;SDS011;2362;50.780;0.292;2023-09-12T11:57:10;6.80;;;2.75;;
4696;SDS011;2362;50.780;0.292;2023-09-12T11:59:42;11.35;;;2.53;;
4696;SDS011;2362;50.780;0.292;2023-09-12T12:02:13;5.63;;;3.57;;
4696;SDS011;2362;50.780;0.292;2023-09-12T12:04:39;7.38;;;3.03;;
4696;SDS011;2362;50.780;0.292;2023-09-12T12:07:05;7.85;;;2.90;;
4696;SDS011;2362;50.780;0.292;2023-09-12T12:09:32;5.00;;;3.10;;
4696;SDS011;2362;50.780;0.292;2023-09-12T12:12:09;7.40;;;2.55;;
4696;SDS011;2362;50.780;0.292;2023-09-12T12:14:34;6.45;;;3.03;;
4696;SDS011;2362;50.780;0.292;2023-09-12T12:17:07;11.48;;;2.97;;
4696;SDS011;2362;50.780;0.292;2023-09-12T12:19:34;6.38;;;2.88;;
4696;SDS011;2362;50.780;0.292;2023-09-12T12:22:01;6.88;;;3.20;;
4696;SDS011;2362;50.780;0.292;2023-09-12T12:24:36;14.90;;;5.22;;
4696;SDS011;2362;50.780;0.292;2023-09-12T12:27:03;8.38;;;4.05;;
4696;SDS011;2362;50.780;0.292;2023-09-12T12:29:29;12.27;;;4.40;;
4696;SDS011;2362;50.780;0.292;2023-09-12T12:32:01;13.48;;;4.43;;
4696;SDS011;2362;50.780;0.292;2023-09-12T12:34:27;8.50;;;3.88;;
4696;SDS011;2362;50.780;0.292;2023-09-12T12:36:54;14.52;;;4.40;;
4696;SDS011;2362;50.780;0.292;2023-09-12T12:39:20;7.95;;;3.63;;
4696;SDS011;2362;50.780;0.292;2023-09-12T12:41:47;13.32;;;3.85;;
4696;SDS011;2362;50.780;0.292;2023-09-12T12:44:13;7.55;;;2.90;;
4696;SDS011;2362;50.780;0.292;2023-09-12T12:46:53;7.00;;;3.03;;
4696;SDS011;2362;50.780;0.292;2023-09-12T12:49:19;6.68;;;2.30;;
4696;SDS011;2362;50.780;0.292;2023-09-12T12:51:46;6.90;;;2.22;;
4696;SDS011;2362;50.780;0.292;2023-09-12T12:54:13;7.45;;;2.47;;
4696;SDS011;2362;50.780;0.292;2023-09-12T12:56:40;8.32;;;3.08;;
4696;SDS011;2362;50.780;0.292;2023-09-12T12:59:06;8.18;;;2.40;;
4696;SDS011;2362;50.780;0.292;2023-09-12T13:01:34;6.43;;;2.63;;
4696;SDS011;2362;50.780;0.292;2023-09-12T13:04:04;4.72;;;1.95;;
4696;SDS011;2362;50.780;0.292;2023-09-12T13:06:31;9.40;;;2.38;;
4696;SDS011;2362;50.780;0.292;2023-09-12T13:09:00;5.55;;;1.98;;
4696;SDS011;2362;50.780;0.292;2023-09-12T13:11:29;2.70;;;1.60;;
4696;SDS011;2362;50.780;0.292;2023-09-12T13:13:56;28.42;;;2.85;;
4696;SDS011;2362;50.780;0.292;2023-09-12T13:16:22;6.78;;;2.63;;
4696;SDS011;2362;50.780;0.292;2023-09-12T13:18:48;7.15;;;2.42;;
4696;SDS011;2362;50.780;0.292;2023-09-12T13:21:13;11.60;;;2.72;;
4696;SDS011;2362;50.780;0.292;2023-09-12T13:23:39;5.95;;;2.63;;
4696;SDS011;2362;50.780;0.292;2023-09-12T13:26:06;6.60;;;2.45;;
4696;SDS011;2362;50.780;0.292;2023-09-12T13:28:33;10.07;;;2.55;;
4696;SDS011;2362;50.780;0.292;2023-09-12T13:30:58;6.15;;;2.45;;
4696;SDS011;2362;50.780;0.292;2023-09-12T13:33:24;11.57;;;3.00;;
4696;SDS011;2362;50.780;0.292;2023-09-12T13:35:50;6.20;;;3.72;;
4696;SDS011;2362;50.780;0.292;2023-09-12T13:38:16;7.88;;;3.80;;
4696;SDS011;2362;50.780;0.292;2023-09-12T13:40:43;5.10;;;2.83;;
4696;SDS011;2362;50.780;0.292;2023-09-12T13:43:30;8.20;;;3.70;;
4696;SDS011;2362;50.780;0.292;2023-09-12T13:45:56;8.65;;;3.40;;
4696;SDS011;2362;50.780;0.292;2023-09-12T13:48:22;9.70;;;2.60;;
4696;SDS011;2362;50.780;0.292;2023-09-12T13:50:48;11.30;;;3.63;;
4696;SDS011;2362;50.780;0.292;2023-09-12T13:53:13;13.55;;;3.70;;
4696;SDS011;2362;50.780;0.292;2023-09-12T13:55:39;4.82;;;2.55;;
4696;SDS011;2362;50.780;0.292;2023-09-12T13:58:05;10.68;;;3.00;;
4696;SDS011;2362;50.780;0.292;2023-09-12T14:00:32;9.32;;;3.42;;
4696;SDS011;2362;50.780;0.292;2023-09-12T14:02:59;6.97;;;3.33;;
4696;SDS011;2362;50.780;0.292;2023-09-12T14:05:24;9.50;;;3.08;;
4696;SDS011;2362;50.780;0.292;2023-09-12T14:07:51;13.52;;;3.88;;
4696;SDS011;2362;50.780;0.292;2023-09-12T14:10:16;6.18;;;3.33;;
4696;SDS011;2362;50.780;0.292;2023-09-12T14:12:42;5.28;;;3.00;;
4696;SDS011;2362;50.780;0.292;2023-09-12T14:15:09;14.32;;;2.97;;
4696;SDS011;2362;50.780;0.292;2023-09-12T14:17:37;4.85;;;3.00;;
4696;SDS011;2362;50.780;0.292;2023-09-12T14:20:03;9.02;;;3.10;;
4696;SDS011;2362;50.780;0.292;2023-09-12T14:22:28;23.58;;;4.22;;
4696;SDS011;2362;50.780;0.292;2023-09-12T14:24:54;6.45;;;3.10;;
4696;SDS011;2362;50.780;0.292;2023-09-12T14:27:20;9.43;;;2.63;;
4696;SDS011;2362;50.780;0.292;2023-09-12T14:29:46;4.32;;;2.20;;
4696;SDS011;2362;50.780;0.292;2023-09-12T14:32:14;8.57;;;2.92;;
4696;SDS011;2362;50.780;0.292;2023-09-12T14:34:40;7.65;;;3.05;;
4696;SDS011;2362;50.780;0.292;2023-09-12T14:37:06;15.18;;;3.47;;
4696;SDS011;2362;50.780;0.292;2023-09-12T14:39:32;6.13;;;2.95;;
4696;SDS011;2362;50.780;0.292;2023-09-12T14:41:57;9.73;;;3.25;;
4696;SDS011;2362;50.780;0.292;2023-09-12T14:44:24;15.32;;;3.35;;
4696;SDS011;2362;50.780;0.292;2023-09-12T14:46:50;8.80;;;3.30;;
4696;SDS011;2362;50.780;0.292;2023-09-12T14:49:15;10.55;;;3.72;;
4696;SDS011;2362;50.780;0.292;2023-09-12T14:51:42;17.95;;;3.72;;
4696;SDS011;2362;50.780;0.292;2023-09-12T14:54:08;8.73;;;3.78;;
4696;SDS011;2362;50.780;0.292;2023-09-12T14:56:34;7.90;;;3.83;;
4696;SDS011;2362;50.780;0.292;2023-09-12T14:59:00;12.75;;;3.40;;
4696;SDS011;2362;50.780;0.292;2023-09-12T15:01:26;10.90;;;3.38;;
4696;SDS011;2362;50.780;0.292;2023-09-12T15:03:52;10.57;;;3.97;;
4696;SDS011;2362;50.780;0.292;2023-09-12T15:06:19;8.32;;;3.25;;
4696;SDS011;2362;50.780;0.292;2023-09-12T15:08:45;12.30;;;3.67;;
4696;SDS011;2362;50.780;0.292;2023-09-12T15:11:10;10.00;;;3.67;;
4696;SDS011;2362;50.780;0.292;2023-09-12T15:13:36;13.07;;;3.88;;
4696;SDS011;2362;50.780;0.292;2023-09-12T15:16:02;8.52;;;3.58;;
4696;SDS011;2362;50.780;0.292;2023-09-12T15:18:29;7.68;;;3.40;;
4696;SDS011;2362;50.780;0.292;2023-09-12T15:20:58;9.80;;;4.07;;